createdAt,value
2023-04-28T00:01:01.051Z,61.56
2023-04-28T00:04:03.558Z,61.73
2023-04-28T00:07:05.516Z,61.74
2023-04-28T00:10:08.010Z,61.52
2023-04-28T00:13:10.435Z,61.53
2023-04-28T00:16:12.224Z,61.78
2023-04-28T00:19:13.925Z,61.68
2023-04-28T00:22:15.620Z,61.69
2023-04-28T00:25:17.359Z,61.88
2023-04-28T00:28:32.902Z,61.86
2023-04-28T00:31:35.836Z,61.63
2023-04-28T00:34:37.580Z,61.72
2023-04-28T00:37:39.412Z,62.04
2023-04-28T00:40:41.250Z,62.10
2023-04-28T00:43:49.974Z,61.86
2023-04-28T00:46:53.194Z,61.43
2023-04-28T00:49:55.254Z,61.27
2023-04-28T00:52:57.156Z,61.14
2023-04-28T00:55:59.183Z,61.28
2023-04-28T00:59:00.959Z,61.16
2023-04-28T01:02:03.191Z,61.42
2023-04-28T01:05:04.964Z,61.43
2023-04-28T01:08:07.503Z,61.14
2023-04-28T01:11:13.557Z,60.93
2023-04-28T01:14:39.301Z,60.98
2023-04-28T01:17:41.572Z,60.89
2023-04-28T01:20:44.147Z,60.81
2023-04-28T01:23:46.236Z,60.84
2023-04-28T01:26:47.980Z,61.07
2023-04-28T01:29:50.220Z,60.63
2023-04-28T01:32:51.961Z,60.69
2023-04-28T01:35:58.084Z,60.80
2023-04-28T01:39:00.166Z,60.87
2023-04-28T01:42:01.816Z,60.57
2023-04-28T01:45:04.722Z,60.97
2023-04-28T01:48:06.609Z,61.09
2023-04-28T01:51:08.404Z,61.02
2023-04-28T01:54:12.513Z,60.85
2023-04-28T01:57:15.521Z,60.94
2023-04-28T02:00:19.792Z,60.77
2023-04-28T02:03:25.680Z,60.57
2023-04-28T02:06:27.525Z,60.59
2023-04-28T02:09:29.250Z,60.49
2023-04-28T02:12:33.363Z,60.59
2023-04-28T02:15:39.762Z,60.66
2023-04-28T02:18:41.431Z,60.94
2023-04-28T02:21:43.220Z,60.93
2023-04-28T02:24:45.064Z,61.14
2023-04-28T02:27:47.248Z,61.30
2023-04-28T02:30:48.884Z,61.16
2023-04-28T02:33:52.331Z,61.55
2023-04-28T02:36:54.118Z,61.82
2023-04-28T02:39:56.311Z,61.65
2023-04-28T02:42:57.997Z,61.52
2023-04-28T02:45:59.881Z,61.32
2023-04-28T02:49:01.523Z,61.12
2023-04-28T02:52:03.851Z,61.06
2023-04-28T02:55:06.095Z,61.14
2023-04-28T02:58:07.785Z,61.15
2023-04-28T03:01:09.587Z,61.02
2023-04-28T03:04:11.542Z,61.18
2023-04-28T03:07:13.423Z,61.29
2023-04-28T03:10:15.224Z,61.33
2023-04-28T03:13:16.964Z,61.49
2023-04-28T03:16:18.769Z,61.58
2023-04-28T03:19:20.644Z,61.60
2023-04-28T03:22:22.536Z,61.77
2023-04-28T03:25:24.353Z,61.74
2023-04-28T03:28:26.364Z,61.69
2023-04-28T03:31:28.212Z,61.81
2023-04-28T03:34:29.939Z,61.90
2023-04-28T03:37:31.671Z,61.99
2023-04-28T03:40:33.621Z,62.06
2023-04-28T03:43:56.181Z,62.06
2023-04-28T03:47:04.103Z,62.09
2023-04-28T03:50:06.553Z,62.16
2023-04-28T03:53:08.196Z,62.21
2023-04-28T03:56:10.375Z,62.04
2023-04-28T03:59:13.934Z,62.30
2023-04-28T04:02:15.635Z,62.32
2023-04-28T04:05:17.596Z,62.45
2023-04-28T04:08:19.503Z,62.55
2023-04-28T04:11:21.273Z,62.66
2023-04-28T04:14:23.071Z,62.73
2023-04-28T04:17:25.121Z,62.80
2023-04-28T04:20:26.952Z,62.93
2023-04-28T04:23:28.761Z,62.89
2023-04-28T04:26:30.645Z,63.15
2023-04-28T04:29:32.885Z,63.26
2023-04-28T04:32:36.021Z,62.97
2023-04-28T04:35:38.090Z,63.19
2023-04-28T04:38:40.208Z,63.29
2023-04-28T04:41:48.358Z,63.43
2023-04-28T04:45:09.700Z,63.63
2023-04-28T04:48:11.871Z,63.59
2023-04-28T04:51:13.678Z,63.58
2023-04-28T04:54:15.641Z,63.51
2023-04-28T04:57:17.742Z,63.71
2023-04-28T05:00:54.657Z,63.69
2023-04-28T05:03:56.591Z,63.68
2023-04-28T05:06:58.406Z,63.42
2023-04-28T05:10:00.731Z,63.14
2023-04-28T05:13:02.540Z,62.88
2023-04-28T05:16:04.774Z,62.76
2023-04-28T05:19:09.350Z,62.88
2023-04-28T05:22:11.584Z,62.57
2023-04-28T05:25:13.335Z,62.53
2023-04-28T05:28:15.089Z,62.37
2023-04-28T05:31:17.287Z,62.05
2023-04-28T05:34:19.522Z,61.82
2023-04-28T05:37:21.396Z,61.52
2023-04-28T05:40:23.569Z,61.49
2023-04-28T05:43:25.410Z,61.45
2023-04-28T05:46:30.985Z,61.23
2023-04-28T05:49:37.060Z,60.61
2023-04-28T05:52:39.470Z,60.11
2023-04-28T05:55:41.348Z,59.67
2023-04-28T05:58:44.432Z,59.40
2023-04-28T06:01:52.536Z,59.40
2023-04-28T06:04:55.203Z,59.59
2023-04-28T06:07:57.119Z,59.07
2023-04-28T06:10:58.775Z,58.77
2023-04-28T06:14:00.583Z,58.35
2023-04-28T06:17:02.540Z,58.12
2023-04-28T06:20:05.350Z,57.88
2023-04-28T06:23:08.395Z,58.02
2023-04-28T06:26:11.269Z,57.69
2023-04-28T06:29:14.324Z,57.38
2023-04-28T06:32:16.088Z,57.09
2023-04-28T06:35:17.823Z,56.87
2023-04-28T06:38:19.507Z,56.81
2023-04-28T06:41:21.461Z,56.50
2023-04-28T06:44:25.708Z,56.23
2023-04-28T06:47:27.416Z,56.24
2023-04-28T06:50:41.766Z,56.02
2023-04-28T06:53:46.306Z,55.68
2023-04-28T06:56:52.015Z,55.74
2023-04-28T06:59:53.791Z,54.94
2023-04-28T07:02:58.887Z,54.96
2023-04-28T07:06:03.925Z,54.90
2023-04-28T07:09:05.824Z,54.72
2023-04-28T07:12:07.705Z,54.16
2023-04-28T07:15:25.672Z,53.73
2023-04-28T07:18:28.310Z,53.52
2023-04-28T07:21:30.785Z,52.95
2023-04-28T07:24:32.562Z,52.42
2023-04-28T07:27:38.152Z,52.89
2023-04-28T07:30:40.060Z,52.82
2023-04-28T07:33:45.058Z,52.16
2023-04-28T07:36:47.255Z,51.75
2023-04-28T07:39:49.164Z,51.61
2023-04-28T07:42:51.421Z,50.97
2023-04-28T07:45:53.234Z,50.97
2023-04-28T07:48:55.136Z,50.82
2023-04-28T07:52:12.995Z,50.29
2023-04-28T07:55:14.873Z,49.99
2023-04-28T07:58:16.677Z,48.87
2023-04-28T08:01:18.535Z,49.09
2023-04-28T08:07:22.209Z,47.25
2023-04-28T08:10:25.971Z,46.79
2023-04-28T08:13:28.344Z,46.03
2023-04-28T08:16:30.993Z,45.33
2023-04-28T08:19:32.968Z,45.44
2023-04-28T08:22:35.072Z,44.54
2023-04-28T08:25:36.958Z,44.86
2023-04-28T08:28:39.526Z,44.13
2023-04-28T08:31:41.505Z,43.38
2023-04-28T08:34:43.369Z,42.80
2023-04-28T08:37:45.778Z,42.17
2023-04-28T08:40:47.371Z,42.43
2023-04-28T08:43:49.672Z,42.92
2023-04-28T08:46:53.882Z,42.78
2023-04-28T08:50:01.893Z,43.25
2023-04-28T08:56:07.249Z,40.94
2023-04-28T08:59:09.130Z,41.91
2023-04-28T09:02:11.405Z,40.85
2023-04-28T09:05:14.036Z,39.80
2023-04-28T09:08:16.062Z,40.78
2023-04-28T09:11:18.773Z,39.24
2023-04-28T09:14:22.121Z,39.14
2023-04-28T09:17:23.998Z,39.04
2023-04-28T09:20:27.710Z,38.46
2023-04-28T09:23:30.201Z,38.22
2023-04-28T09:26:50.065Z,37.27
2023-04-28T09:29:53.510Z,37.35
2023-04-28T09:33:05.008Z,37.11
2023-04-28T09:36:07.329Z,37.20
2023-04-28T09:39:09.106Z,36.31
2023-04-28T09:42:29.972Z,36.71
2023-04-28T09:45:41.934Z,35.79
2023-04-28T09:48:44.404Z,35.76
2023-04-28T09:51:46.270Z,34.80
2023-04-28T09:54:53.852Z,34.67
2023-04-28T09:57:59.596Z,35.52
2023-04-28T10:01:02.669Z,35.47
2023-04-28T10:04:06.855Z,35.57
2023-04-28T10:07:09.904Z,35.43
2023-04-28T10:10:13.949Z,35.68
2023-04-28T10:13:17.399Z,35.40
2023-04-28T10:16:19.685Z,35.24
2023-04-28T10:19:21.473Z,35.11
2023-04-28T10:23:24.594Z,34.86
2023-04-28T10:26:35.776Z,35.23
2023-04-28T10:29:37.881Z,35.72
2023-04-28T10:32:40.992Z,35.35
2023-04-28T10:35:47.341Z,34.95
2023-04-28T10:39:09.231Z,34.40
2023-04-28T10:42:47.832Z,34.59
2023-04-28T10:45:55.649Z,34.23
2023-04-28T10:48:58.784Z,34.33
2023-04-28T10:52:00.553Z,34.83
2023-04-28T10:55:35.837Z,34.83
2023-04-28T10:58:42.034Z,34.73
2023-04-28T11:01:45.199Z,34.75
2023-04-28T11:05:12.081Z,34.98
2023-04-28T11:08:31.103Z,34.92
2023-04-28T11:11:35.569Z,34.74
2023-04-28T11:14:39.913Z,35.51
2023-04-28T11:17:41.966Z,34.43
2023-04-28T11:20:52.724Z,34.01
2023-04-28T11:23:54.864Z,34.09
2023-04-28T11:26:58.063Z,33.17
2023-04-28T11:30:04.279Z,33.67
2023-04-28T11:33:07.322Z,33.83
2023-04-28T11:36:21.991Z,33.39
2023-04-28T11:39:31.739Z,33.35
2023-04-28T11:42:33.496Z,33.55
2023-04-28T11:45:38.394Z,33.44
2023-04-28T11:48:41.293Z,34.50
2023-04-28T11:51:46.246Z,32.97
2023-04-28T11:54:57.247Z,32.77
2023-04-28T11:58:23.416Z,33.16
2023-04-28T12:01:25.203Z,33.50
2023-04-28T12:04:37.694Z,32.55
2023-04-28T12:07:43.777Z,32.61
2023-04-28T12:11:14.762Z,31.78
2023-04-28T12:14:16.968Z,31.62
2023-04-28T12:17:29.635Z,31.56
2023-04-28T12:20:38.674Z,31.75
2023-04-28T12:23:42.573Z,30.66
2023-04-28T12:26:44.626Z,30.81
2023-04-28T12:29:47.414Z,30.97
2023-04-28T12:32:49.242Z,31.39
2023-04-28T12:35:51.792Z,31.78
2023-04-28T12:38:53.659Z,31.59
2023-04-28T12:41:59.335Z,31.71
2023-04-28T12:45:01.350Z,31.92
2023-04-28T12:48:03.216Z,30.69
2023-04-28T12:51:05.535Z,31.12
2023-04-28T12:54:07.529Z,31.03
2023-04-28T12:57:09.355Z,30.32
2023-04-28T13:00:16.048Z,31.79
2023-04-28T13:03:19.265Z,31.15
2023-04-28T13:06:21.648Z,31.39
2023-04-28T13:09:25.056Z,30.96
2023-04-28T13:12:27.019Z,30.92
2023-04-28T13:15:29.655Z,30.75
2023-04-28T13:18:31.651Z,30.69
2023-04-28T13:21:33.371Z,30.43
2023-04-28T13:24:35.527Z,30.94
2023-04-28T13:27:37.770Z,30.58
2023-04-28T13:30:40.055Z,31.32
2023-04-28T13:33:41.916Z,31.26
2023-04-28T13:36:44.545Z,31.08
2023-04-28T13:39:46.346Z,31.16
2023-04-28T13:42:48.079Z,31.54
2023-04-28T13:45:51.984Z,30.48
2023-04-28T13:48:54.345Z,30.96
2023-04-28T13:51:56.198Z,30.78
2023-04-28T13:54:58.300Z,30.40
2023-04-28T13:58:04.039Z,31.30
2023-04-28T14:01:05.868Z,31.53
2023-04-28T14:04:07.930Z,31.43
2023-04-28T14:07:10.045Z,31.32
2023-04-28T14:10:11.971Z,31.61
2023-04-28T14:13:13.957Z,31.06
2023-04-28T14:16:38.726Z,30.96
2023-04-28T14:19:40.848Z,30.84
2023-04-28T14:22:42.793Z,31.03
2023-04-28T14:25:57.367Z,31.43
2023-04-28T14:28:59.994Z,30.85
2023-04-28T14:32:01.769Z,31.01
2023-04-28T14:35:05.567Z,31.51
2023-04-28T14:38:07.428Z,31.57
2023-04-28T14:41:09.330Z,31.43
2023-04-28T14:44:11.073Z,31.47
2023-04-28T14:47:13.006Z,31.96
2023-04-28T14:50:14.676Z,31.93
2023-04-28T14:53:16.369Z,31.89
2023-04-28T14:56:27.832Z,31.61
2023-04-28T14:59:29.579Z,31.47
2023-04-28T15:02:31.486Z,31.61
2023-04-28T15:05:33.349Z,31.73
2023-04-28T15:08:34.999Z,32.11
2023-04-28T15:11:36.684Z,32.09
2023-04-28T15:14:38.372Z,32.30
2023-04-28T15:17:40.130Z,32.32
2023-04-28T15:20:42.000Z,32.87
2023-04-28T15:23:43.716Z,33.11
2023-04-28T15:26:45.616Z,33.15
2023-04-28T15:29:47.395Z,33.01
2023-04-28T15:32:49.511Z,33.29
2023-04-28T15:35:51.306Z,33.49
2023-04-28T15:38:53.236Z,33.47
2023-04-28T15:41:55.526Z,33.51
2023-04-28T15:44:57.275Z,33.46
2023-04-28T15:47:59.440Z,33.28
2023-04-28T15:51:01.474Z,33.83
2023-04-28T15:54:03.703Z,33.76
2023-04-28T15:57:05.510Z,33.60
2023-04-28T16:00:08.380Z,33.85
2023-04-28T16:03:11.232Z,34.06
2023-04-28T16:06:14.270Z,34.38
2023-04-28T16:09:16.364Z,34.01
2023-04-28T16:12:18.768Z,34.03
2023-04-28T16:15:20.920Z,34.37
2023-04-28T16:18:23.661Z,34.53
2023-04-28T16:21:26.149Z,34.41
2023-04-28T16:24:29.868Z,34.45
2023-04-28T16:27:32.882Z,35.01
2023-04-28T16:30:35.308Z,34.90
2023-04-28T16:33:37.193Z,35.28
2023-04-28T16:36:39.634Z,35.38
2023-04-28T16:39:41.398Z,35.17
2023-04-28T16:42:44.705Z,35.39
2023-04-28T16:45:47.604Z,35.34
2023-04-28T16:48:49.550Z,35.37
2023-04-28T16:51:59.265Z,35.47
2023-04-28T16:55:08.270Z,36.76
2023-04-28T16:58:09.963Z,37.08
2023-04-28T17:01:11.684Z,37.00
2023-04-28T17:04:14.155Z,37.11
2023-04-28T17:07:15.991Z,37.41
2023-04-28T17:10:17.721Z,37.19
2023-04-28T17:13:19.460Z,37.92
2023-04-28T17:16:21.426Z,38.07
2023-04-28T17:19:23.344Z,38.34
2023-04-28T17:22:25.041Z,38.62
2023-04-28T17:25:26.738Z,38.75
2023-04-28T17:28:28.477Z,38.72
2023-04-28T17:31:30.534Z,37.89
2023-04-28T17:34:32.367Z,37.92
2023-04-28T17:37:35.005Z,38.36
2023-04-28T17:40:37.377Z,38.67
2023-04-28T17:43:39.189Z,38.91
2023-04-28T17:46:41.343Z,39.13
2023-04-28T17:49:43.032Z,39.35
2023-04-28T17:52:44.772Z,39.47
2023-04-28T17:55:46.531Z,39.72
2023-04-28T17:58:48.237Z,39.94
2023-04-28T18:01:50.109Z,40.24
2023-04-28T18:04:52.151Z,40.61
2023-04-28T18:07:54.702Z,40.99
2023-04-28T18:10:56.461Z,40.70
2023-04-28T18:13:58.260Z,41.33
2023-04-28T18:17:00.197Z,41.83
2023-04-28T18:20:03.669Z,41.66
2023-04-28T18:23:06.226Z,41.61
2023-04-28T18:26:08.140Z,41.81
2023-04-28T18:29:09.774Z,41.89
2023-04-28T18:32:14.337Z,41.99
2023-04-28T18:35:17.489Z,42.35
2023-04-28T18:38:19.757Z,43.11
2023-04-28T18:41:21.721Z,43.30
2023-04-28T18:44:23.462Z,43.71
2023-04-28T18:47:25.158Z,43.58
2023-04-28T18:50:28.307Z,43.74
2023-04-28T18:53:30.089Z,43.84
2023-04-28T18:56:31.872Z,45.00
2023-04-28T18:59:33.535Z,45.36
2023-04-28T19:02:35.706Z,45.50
2023-04-28T19:05:38.163Z,45.60
2023-04-28T19:08:40.870Z,45.65
2023-04-28T19:11:42.432Z,45.09
2023-04-28T19:14:44.320Z,44.90
2023-04-28T19:17:48.536Z,45.50
2023-04-28T19:20:58.566Z,46.45
2023-04-28T19:24:45.799Z,46.77
2023-04-28T19:27:47.822Z,46.53
2023-04-28T19:30:49.996Z,47.15
2023-04-28T19:33:51.775Z,47.01
2023-04-28T19:36:55.209Z,47.20
2023-04-28T19:39:57.167Z,47.10
2023-04-28T19:42:59.662Z,47.34
2023-04-28T19:46:05.023Z,47.51
2023-04-28T19:49:12.142Z,47.79
2023-04-28T19:52:13.976Z,47.96
2023-04-28T19:55:19.307Z,48.19
2023-04-28T19:58:21.797Z,48.23
2023-04-28T20:01:23.671Z,48.36
2023-04-28T20:04:28.334Z,48.64
2023-04-28T20:07:30.460Z,48.89
2023-04-28T20:10:32.479Z,49.06
2023-04-28T20:13:34.335Z,49.13
2023-04-28T20:16:36.203Z,49.19
2023-04-28T20:20:28.677Z,49.54
2023-04-28T20:27:29.835Z,49.24
2023-04-28T20:33:48.571Z,50.46
2023-04-28T20:36:53.231Z,50.54
2023-04-28T20:39:55.725Z,50.56
2023-04-28T20:42:58.254Z,50.67
2023-04-28T20:46:00.090Z,50.84
2023-04-28T20:49:02.443Z,50.84
2023-04-28T20:52:04.682Z,51.05
2023-04-28T20:55:08.953Z,50.52
2023-04-28T20:58:10.677Z,51.06
2023-04-28T21:01:13.053Z,51.17
2023-04-28T21:04:15.075Z,51.44
2023-04-28T21:07:17.113Z,50.89
2023-04-28T21:10:18.869Z,51.47
2023-04-28T21:13:20.644Z,51.79
2023-04-28T21:16:22.505Z,51.87
2023-04-28T21:19:25.190Z,51.94
2023-04-28T21:22:29.295Z,52.06
2023-04-28T21:25:31.017Z,52.13
2023-04-28T21:28:33.965Z,51.87
2023-04-28T21:31:35.842Z,51.91
2023-04-28T21:34:37.563Z,51.88
2023-04-28T21:37:39.500Z,51.90
2023-04-28T21:40:41.286Z,52.01
2023-04-28T21:43:42.979Z,52.05
2023-04-28T21:46:44.668Z,52.37
2023-04-28T21:49:46.765Z,52.64
2023-04-28T21:52:48.458Z,52.71
2023-04-28T21:55:50.276Z,52.47
2023-04-28T21:58:51.921Z,52.45
2023-04-28T22:01:54.637Z,52.32
2023-04-28T22:04:56.345Z,52.71
2023-04-28T22:07:58.036Z,52.65
2023-04-28T22:11:00.362Z,52.87
2023-04-28T22:14:02.006Z,52.75
2023-04-28T22:17:03.717Z,52.32
2023-04-28T22:20:06.249Z,52.64
2023-04-28T22:23:07.975Z,52.41
2023-04-28T22:26:09.775Z,52.93
2023-04-28T22:29:11.739Z,52.51
2023-04-28T22:32:13.460Z,52.46
2023-04-28T22:35:15.926Z,52.35
2023-04-28T22:38:17.696Z,52.61
2023-04-28T22:41:19.395Z,52.52
2023-04-28T22:44:21.258Z,52.47
2023-04-28T22:47:23.030Z,52.72
2023-04-28T22:50:24.743Z,52.97
2023-04-28T22:53:27.028Z,53.34
2023-04-28T22:56:28.730Z,53.50
2023-04-28T22:59:32.455Z,53.08
2023-04-28T23:02:34.277Z,53.50
2023-04-28T23:05:37.330Z,53.55
2023-04-28T23:08:39.059Z,53.57
2023-04-28T23:11:40.907Z,53.50
2023-04-28T23:14:42.617Z,53.48
2023-04-28T23:17:44.307Z,53.54
2023-04-28T23:20:49.422Z,53.50
2023-04-28T23:23:51.091Z,53.50
2023-04-28T23:26:52.826Z,53.53
2023-04-28T23:29:54.548Z,53.66
2023-04-28T23:32:56.336Z,53.81
2023-04-28T23:35:58.213Z,53.72
2023-04-28T23:39:00.972Z,52.99
2023-04-28T23:42:02.846Z,52.72
2023-04-28T23:45:06.147Z,52.49
2023-04-28T23:48:07.851Z,52.34
2023-04-28T23:51:09.600Z,51.83
2023-04-28T23:54:11.398Z,51.68
2023-04-28T23:57:13.140Z,50.81
